Time;durP1;ratioP1;P1;durP2;ratioP2;P2;SDS_P1;SDS_P2;PMS_P1;PMS_P2;Temp;Humidity;BMP_temperature;BMP_pressure;BME280_temperature;BME280_humidity;BME280_pressure;Samples;Min_cycle;Max_cycle;Signal;HPM_P1;HPM_P2
2021/05/16 04:01:50;;;;;;;4.03;0.87;;;8.30;96.30;;;;;;5242827;23;20526;-81
2021/05/16 04:04:16;;;;;;;3.73;0.60;;;8.20;96.30;;;;;;4883087;29;20433;-80
2021/05/16 04:06:41;;;;;;;2.20;0.70;;;8.20;96.30;;;;;;4883167;29;20422;-80
2021/05/16 04:09:07;;;;;;;2.17;0.80;;;8.30;96.30;;;;;;4882163;29;20225;-80
2021/05/16 04:11:32;;;;;;;2.27;0.80;;;8.20;96.30;;;;;;4882589;29;20269;-80
2021/05/16 04:13:58;;;;;;;1.17;0.50;;;8.20;96.30;;;;;;4883423;29;20281;-79
2021/05/16 04:16:23;;;;;;;1.53;0.80;;;8.20;96.30;;;;;;4879854;29;20181;-78
2021/05/16 04:18:49;;;;;;;1.70;0.90;;;8.20;96.30;;;;;;4880218;29;20242;-79
2021/05/16 04:21:14;;;;;;;2.20;0.77;;;8.10;96.30;;;;;;4881211;29;20284;-79
2021/05/16 04:23:40;;;;;;;1.67;0.80;;;8.00;96.30;;;;;;4882011;29;20185;-79
2021/05/16 04:26:05;;;;;;;3.40;1.00;;;8.00;96.30;;;;;;4881681;29;20210;-79
2021/05/16 04:28:31;;;;;;;3.07;1.10;;;8.00;96.30;;;;;;4880662;29;20189;-79
2021/05/16 04:30:57;;;;;;;3.80;1.57;;;8.00;96.30;;;;;;4880377;29;20205;-79
2021/05/16 04:33:22;;;;;;;6.60;1.27;;;8.00;96.30;;;;;;4880517;29;20204;-79
2021/05/16 04:35:48;;;;;;;1.93;0.77;;;8.00;96.30;;;;;;4879959;29;20558;-79
2021/05/16 04:38:14;;;;;;;3.27;1.00;;;8.10;96.30;;;;;;4881167;29;20214;-80
2021/05/16 04:40:39;;;;;;;3.53;0.90;;;8.20;96.30;;;;;;4886269;29;20222;-81
2021/05/16 04:43:05;;;;;;;4.27;0.90;;;8.20;96.30;;;;;;4885167;29;20482;-80
2021/05/16 04:45:30;;;;;;;3.30;0.90;;;8.30;96.30;;;;;;4885121;29;20212;-80
2021/05/16 04:47:56;;;;;;;4.10;1.20;;;8.40;96.30;;;;;;4885794;29;20170;-80
2021/05/16 04:50:22;;;;;;;1.17;0.70;;;8.30;96.30;;;;;;4885349;29;20654;-81
2021/05/16 04:52:47;;;;;;;6.70;1.80;;;8.30;96.30;;;;;;4886333;29;20174;-78
2021/05/16 04:55:14;;;;;;;2.73;1.07;;;8.30;96.30;;;;;;4883584;29;20182;-78
2021/05/16 04:57:40;;;;;;;3.83;1.40;;;8.30;96.30;;;;;;4883498;29;20599;-79
2021/05/16 05:00:07;;;;;;;5.43;1.27;;;8.40;96.30;;;;;;4882325;29;20426;-79
2021/05/16 05:02:37;;;;;;;4.33;1.00;;;8.40;96.30;;;;;;4881844;29;20197;-79
2021/05/16 05:05:04;;;;;;;2.83;0.80;;;8.50;96.30;;;;;;4880632;29;20469;-78
2021/05/16 05:07:30;;;;;;;2.70;1.20;;;8.40;96.30;;;;;;4880160;29;20425;-79
2021/05/16 05:09:55;;;;;;;2.40;0.80;;;8.40;96.30;;;;;;4879916;29;21014;-78
2021/05/16 05:12:21;;;;;;;1.43;0.80;;;8.30;96.30;;;;;;4879609;29;20478;-78
2021/05/16 05:14:47;;;;;;;2.90;0.87;;;8.30;96.30;;;;;;4882429;29;20177;-79
2021/05/16 05:17:13;;;;;;;4.07;0.83;;;8.40;96.30;;;;;;4880683;29;20218;-79
2021/05/16 05:19:38;;;;;;;2.17;0.90;;;8.50;96.30;;;;;;4882494;29;20481;-79
2021/05/16 05:22:04;;;;;;;3.30;1.10;;;8.70;96.30;;;;;;4880946;29;20577;-79
2021/05/16 05:24:29;;;;;;;4.13;1.10;;;8.90;96.30;;;;;;4881741;29;20189;-79
2021/05/16 05:26:55;;;;;;;1.80;0.80;;;9.30;96.30;;;;;;4880681;29;20653;-78
2021/05/16 05:29:20;;;;;;;6.83;0.97;;;9.40;96.30;;;;;;4879900;29;20196;-78
2021/05/16 05:31:46;;;;;;;4.60;0.93;;;9.50;96.30;;;;;;4881124;29;20201;-79
2021/05/16 05:34:12;;;;;;;4.93;1.23;;;9.60;96.30;;;;;;4881616;29;20647;-79
2021/05/16 05:36:38;;;;;;;3.30;0.90;;;9.60;96.30;;;;;;4880525;29;20553;-79
2021/05/16 05:39:04;;;;;;;2.30;0.80;;;9.60;96.30;;;;;;4879744;29;20935;-79
2021/05/16 05:41:30;;;;;;;2.70;0.70;;;9.40;96.30;;;;;;4880171;29;20205;-78
2021/05/16 05:43:56;;;;;;;3.43;1.10;;;9.30;96.30;;;;;;4881199;29;20586;-79
2021/05/16 05:46:21;;;;;;;5.63;1.20;;;9.30;96.30;;;;;;4880882;29;20281;-79
2021/05/16 05:48:47;;;;;;;4.23;1.10;;;9.40;96.30;;;;;;4881031;29;20643;-79
2021/05/16 05:51:13;;;;;;;5.27;1.73;;;9.40;96.30;;;;;;4880038;29;20292;-79
2021/05/16 05:53:40;;;;;;;5.47;1.30;;;9.50;96.30;;;;;;4881763;29;20169;-79
2021/05/16 05:56:06;;;;;;;2.30;1.00;;;9.60;96.30;;;;;;4882110;29;20422;-78
2021/05/16 05:58:34;;;;;;;7.47;1.10;;;9.80;96.30;;;;;;4883068;29;20428;-79
2021/05/16 06:01:00;;;;;;;2.57;1.00;;;9.80;96.30;;;;;;4882779;29;20219;-79
2021/05/16 06:03:26;;;;;;;3.37;1.00;;;9.80;96.30;;;;;;4888596;29;20433;-79
2021/05/16 06:05:51;;;;;;;1.47;0.90;;;9.90;96.30;;;;;;4898900;29;20228;-78
2021/05/16 06:08:17;;;;;;;4.20;1.10;;;10.00;96.30;;;;;;4894858;29;20256;-79
2021/05/16 06:10:42;;;;;;;3.63;1.00;;;10.20;96.30;;;;;;4899127;29;20284;-79
2021/05/16 06:13:08;;;;;;;5.20;1.10;;;11.00;96.30;;;;;;4899889;29;20173;-78
2021/05/16 06:15:33;;;;;;;2.53;0.83;;;11.80;96.30;;;;;;4897935;29;20188;-80
2021/05/16 06:18:01;;;;;;;3.70;0.90;;;13.60;96.30;;;;;;4903105;29;20673;-80
2021/05/16 06:20:26;;;;;;;2.93;1.00;;;13.80;96.30;;;;;;4904117;29;20540;-81
2021/05/16 06:22:53;;;;;;;4.27;1.53;;;13.90;96.30;;;;;;4907713;29;20512;-81
2021/05/16 06:25:19;;;;;;;2.30;1.00;;;15.00;95.80;;;;;;4908989;29;20209;-80
2021/05/16 06:27:44;;;;;;;2.23;1.00;;;14.40;96.30;;;;;;4891527;29;20427;-80
2021/05/16 06:30:10;;;;;;;1.93;0.83;;;13.30;96.30;;;;;;4882885;29;20444;-80
2021/05/16 06:32:37;;;;;;;2.80;1.20;;;12.60;96.30;;;;;;4876942;29;20247;-80
2021/05/16 06:35:03;;;;;;;2.30;1.00;;;12.10;96.30;;;;;;4868868;29;20193;-80
2021/05/16 06:37:29;;;;;;;2.40;0.87;;;11.70;96.30;;;;;;4875063;29;20437;-80
2021/05/16 06:39:55;;;;;;;3.27;1.00;;;11.30;96.30;;;;;;4877035;29;21006;-80
2021/05/16 06:42:21;;;;;;;3.10;1.00;;;10.90;96.30;;;;;;4877210;29;20216;-80
2021/05/16 06:44:47;;;;;;;4.57;1.00;;;11.00;96.30;;;;;;4869973;29;20573;-81
2021/05/16 06:47:13;;;;;;;2.80;1.00;;;11.30;96.30;;;;;;4880208;29;20442;-81
2021/05/16 06:49:38;;;;;;;3.03;1.20;;;12.40;96.30;;;;;;4889307;29;20214;-81
2021/05/16 06:52:04;;;;;;;2.20;0.87;;;13.40;96.30;;;;;;4879193;29;20229;-81
2021/05/16 06:54:30;;;;;;;2.33;0.93;;;13.60;96.30;;;;;;4877950;29;20181;-81
2021/05/16 06:56:56;;;;;;;4.07;1.30;;;12.90;96.30;;;;;;4878301;29;20474;-81
2021/05/16 06:59:21;;;;;;;2.83;1.20;;;12.40;96.30;;;;;;4874589;29;20439;-82
2021/05/16 07:01:47;;;;;;;2.93;1.00;;;13.30;96.30;;;;;;4878839;29;20220;-81
2021/05/16 07:04:13;;;;;;;1.90;0.87;;;13.50;96.30;;;;;;4884314;29;20221;-81
2021/05/16 07:06:39;;;;;;;3.33;1.00;;;13.90;96.30;;;;;;4886016;29;20204;-81
2021/05/16 07:09:05;;;;;;;2.33;0.93;;;15.60;96.30;;;;;;4870971;29;20514;-82
2021/05/16 07:11:30;;;;;;;4.10;1.10;;;15.50;92.80;;;;;;4874882;29;20212;-81
2021/05/16 07:13:56;;;;;;;2.80;1.20;;;14.10;96.00;;;;;;4874481;29;20617;-81
2021/05/16 07:16:21;;;;;;;3.70;1.20;;;14.20;96.30;;;;;;4880611;29;20182;-81
2021/05/16 07:18:47;;;;;;;8.93;1.13;;;14.20;92.50;;;;;;4878107;29;20221;-82
2021/05/16 07:21:13;;;;;;;4.20;1.03;;;15.00;95.30;;;;;;4884715;29;20269;-81
2021/05/16 07:23:38;;;;;;;3.00;1.00;;;16.20;92.70;;;;;;4872570;29;20458;-82
2021/05/16 07:26:04;;;;;;;2.23;0.90;;;17.10;86.00;;;;;;4879030;29;20210;-82
2021/05/16 07:28:29;;;;;;;4.93;1.20;;;18.40;84.60;;;;;;4864474;29;20187;-82
2021/05/16 07:30:55;;;;;;;2.40;1.27;;;18.90;82.20;;;;;;4870742;29;20209;-82
2021/05/16 07:33:20;;;;;;;4.87;1.20;;;19.80;75.80;;;;;;4868449;29;20548;-82
2021/05/16 07:35:46;;;;;;;1.57;0.93;;;19.80;79.60;;;;;;4868957;29;20273;-82
2021/05/16 07:38:11;;;;;;;2.50;1.10;;;20.60;79.90;;;;;;4874005;29;20180;-82
2021/05/16 07:40:37;;;;;;;3.00;1.20;;;19.30;78.90;;;;;;4867099;29;20229;-82
2021/05/16 07:43:04;;;;;;;1.97;1.00;;;19.00;80.90;;;;;;4875709;29;20588;-82
2021/05/16 07:45:30;;;;;;;3.60;1.20;;;19.90;78.80;;;;;;4873171;29;20197;-82
2021/05/16 07:47:56;;;;;;;4.50;1.10;;;20.50;78.50;;;;;;4878416;29;20862;-82
2021/05/16 07:50:22;;;;;;;3.77;1.20;;;21.10;76.00;;;;;;4873781;29;20228;-82
2021/05/16 07:52:48;;;;;;;2.33;0.90;;;21.60;72.10;;;;;;4878159;29;20426;-82
2021/05/16 07:55:13;;;;;;;4.47;1.20;;;20.90;70.60;;;;;;4877507;29;20253;-82
2021/05/16 07:57:39;;;;;;;4.47;1.50;;;20.20;75.90;;;;;;4872161;29;20318;-82
2021/05/16 08:00:11;;;;;;;1.90;0.83;;;20.50;76.50;;;;;;4874332;29;20196;-82
2021/05/16 08:02:39;;;;;;;4.20;1.27;;;20.80;75.20;;;;;;4869676;29;20198;-82
2021/05/16 08:05:05;;;;;;;2.10;1.30;;;20.90;75.90;;;;;;4867870;29;20522;-82
2021/05/16 08:07:31;;;;;;;4.87;1.40;;;21.30;75.60;;;;;;4873074;29;20514;-82
2021/05/16 08:09:56;;;;;;;2.40;1.10;;;21.20;73.60;;;;;;4876525;29;20438;-82
2021/05/16 08:12:22;;;;;;;3.17;1.20;;;20.50;73.90;;;;;;4862552;29;20202;-82
2021/05/16 08:14:47;;;;;;;6.53;1.93;;;20.90;75.90;;;;;;4874006;29;20235;-82
2021/05/16 08:17:14;;;;;;;1.77;1.00;;;19.60;75.10;;;;;;4898129;29;20196;-83
2021/05/16 08:19:40;;;;;;;4.10;1.00;;;20.20;78.60;;;;;;4882938;29;20209;-81
2021/05/16 08:22:09;;;;;;;2.50;1.10;;;20.60;77.70;;;;;;4882417;29;20449;-79
2021/05/16 08:24:35;;;;;;;3.47;1.07;;;19.80;77.40;;;;;;4884112;29;20173;-78
2021/05/16 08:27:01;;;;;;;2.03;1.20;;;19.00;76.60;;;;;;4880647;29;20418;-78
2021/05/16 08:29:26;;;;;;;3.10;1.20;;;18.00;79.40;;;;;;4881670;29;20209;-78
2021/05/16 08:31:54;;;;;;;3.00;1.07;;;18.70;79.70;;;;;;4882217;29;20434;-79
2021/05/16 08:34:19;;;;;;;2.57;1.10;;;19.50;77.70;;;;;;4882250;29;20202;-79
2021/05/16 08:36:45;;;;;;;6.33;1.37;;;19.20;72.70;;;;;;4882224;29;20422;-79
2021/05/16 08:39:10;;;;;;;3.37;1.13;;;19.70;74.40;;;;;;4882294;29;20664;-80
2021/05/16 08:41:36;;;;;;;5.10;1.13;;;20.40;77.20;;;;;;4882889;29;20251;-80
2021/05/16 08:44:03;;;;;;;4.33;1.20;;;20.30;77.70;;;;;;4881724;29;20185;-79
2021/05/16 08:46:30;;;;;;;3.93;1.30;;;19.70;74.60;;;;;;4881286;29;20465;-79
2021/05/16 08:48:56;;;;;;;2.10;1.07;;;19.60;77.00;;;;;;4882743;29;20422;-79
2021/05/16 08:51:22;;;;;;;4.13;1.43;;;19.90;75.90;;;;;;4883098;29;20430;-80
2021/05/16 08:53:48;;;;;;;4.10;1.17;;;19.80;76.90;;;;;;4881686;29;20593;-80
2021/05/16 08:56:14;;;;;;;2.67;1.23;;;20.60;77.10;;;;;;4881004;29;20454;-79
2021/05/16 08:58:39;;;;;;;3.27;1.37;;;20.30;76.70;;;;;;4879844;29;20185;-79
2021/05/16 09:01:22;;;;;;;6.17;1.40;;;20.20;72.80;;;;;;4880688;29;20209;-80
2021/05/16 09:03:49;;;;;;;3.67;1.00;;;19.60;79.40;;;;;;4880942;29;20178;-79
2021/05/16 09:06:15;;;;;;;4.17;1.23;;;20.30;73.10;;;;;;4883638;29;20466;-81
2021/05/16 09:08:42;;;;;;;3.53;1.37;;;20.50;78.90;;;;;;4882532;29;20496;-81
2021/05/16 09:11:07;;;;;;;5.33;1.20;;;19.80;72.60;;;;;;4882758;29;20528;-81
2021/05/16 09:13:41;;;;;;;16.73;1.43;;;19.40;76.70;;;;;;4884210;29;20486;-80
2021/05/16 09:16:06;;;;;;;5.97;1.27;;;19.20;76.60;;;;;;4883358;29;20249;-80
2021/05/16 09:18:39;;;;;;;4.03;1.13;;;19.00;78.00;;;;;;4885242;29;20426;-81
2021/05/16 09:21:24;;;;;;;2.33;1.37;;;19.90;84.90;;;;;;4884879;29;20205;-80
2021/05/16 09:24:03;;;;;;;1.83;0.90;;;19.40;79.70;;;;;;4880095;29;20491;-80
2021/05/16 09:26:53;;;;;;;3.77;1.43;;;19.70;77.60;;;;;;4882759;29;20453;-80
2021/05/16 09:29:29;;;;;;;6.43;1.20;;;19.10;79.60;;;;;;4880987;29;20931;-79
2021/05/16 09:31:56;;;;;;;5.83;1.30;;;18.60;80.20;;;;;;4883054;29;20533;-80
2021/05/16 09:34:22;;;;;;;2.77;1.20;;;18.60;74.90;;;;;;4884980;29;20752;-80
2021/05/16 09:36:49;;;;;;;4.87;1.27;;;18.70;77.30;;;;;;4887535;29;20426;-80
2021/05/16 09:39:25;;;;;;;1.87;1.00;;;17.90;73.40;;;;;;4888469;29;20186;-81
2021/05/16 09:42:13;;;;;;;7.40;1.40;;;16.30;79.70;;;;;;4888899;29;20485;-81
2021/05/16 09:44:44;;;;;;;2.37;1.00;;;16.90;85.10;;;;;;4884383;29;20430;-81
2021/05/16 09:47:17;;;;;;;3.20;0.97;;;18.20;80.30;;;;;;4891545;29;20582;-81
2021/05/16 09:49:53;;;;;;;3.17;1.10;;;19.00;79.10;;;;;;4893228;29;20429;-81
2021/05/16 09:52:30;;;;;;;2.40;1.20;;;19.40;75.40;;;;;;4881551;29;20504;-81
2021/05/16 09:55:07;;;;;;;3.60;1.33;;;18.20;80.40;;;;;;4881763;29;20473;-81
2021/05/16 09:57:42;;;;;;;2.43;0.90;;;18.10;80.00;;;;;;4880851;29;20422;-82
2021/05/16 10:00:12;;;;;;;3.30;1.20;;;18.40;84.70;;;;;;4880696;29;20406;-81
2021/05/16 10:02:38;;;;;;;4.80;1.40;;;19.30;76.30;;;;;;4879597;29;20441;-83
2021/05/16 10:05:07;;;;;;;2.60;1.23;;;19.50;76.50;;;;;;4879190;29;20610;-79
2021/05/16 10:07:33;;;;;;;5.43;1.10;;;19.00;78.10;;;;;;4879972;29;20436;-81
2021/05/16 10:10:00;;;;;;;4.20;1.40;;;18.70;77.30;;;;;;4878570;29;20419;-81
2021/05/16 10:12:26;;;;;;;6.43;1.10;;;18.90;75.80;;;;;;4881977;29;20457;-81
2021/05/16 10:15:10;;;;;;;4.40;1.07;;;18.10;75.90;;;;;;4880225;29;20579;-80
2021/05/16 10:17:39;;;;;;;3.53;1.10;;;17.00;78.60;;;;;;4880471;29;20402;-82
2021/05/16 10:20:16;;;;;;;5.80;1.10;;;16.80;83.60;;;;;;4880189;29;20771;-82
2021/05/16 10:22:51;;;;;;;4.80;1.10;;;16.60;85.00;;;;;;4879893;29;20482;-81
2021/05/16 10:25:44;;;;;;;3.50;1.00;;;16.50;87.60;;;;;;4862653;29;20454;-82
2021/05/16 10:28:16;;;;;;;2.20;1.03;;;16.50;82.30;;;;;;4865101;29;20505;-82
2021/05/16 10:31:01;;;;;;;2.80;1.30;;;16.20;81.70;;;;;;4863677;29;20485;-82
2021/05/16 10:33:34;;;;;;;5.30;1.57;;;16.00;84.50;;;;;;4864846;29;20403;-81
2021/05/16 10:36:00;;;;;;;4.13;1.00;;;15.70;83.90;;;;;;4876077;29;20851;-82
2021/05/16 10:38:40;;;;;;;2.90;0.90;;;15.70;84.80;;;;;;4880476;29;20445;-82
2021/05/16 10:41:22;;;;;;;2.90;1.13;;;15.40;82.60;;;;;;4879961;29;20220;-81
2021/05/16 10:43:47;;;;;;;4.70;1.17;;;15.30;82.90;;;;;;4877682;29;20422;-79
2021/05/16 10:46:39;;;;;;;4.07;1.13;;;15.30;85.20;;;;;;4879597;29;20974;-80
2021/05/16 10:49:24;;;;;;;4.23;1.20;;;15.40;87.20;;;;;;4878921;29;20178;-82
2021/05/16 10:51:49;;;;;;;2.83;1.10;;;15.60;86.10;;;;;;4877806;29;20527;-80
2021/05/16 10:54:33;;;;;;;4.97;1.20;;;15.80;84.00;;;;;;4879157;29;20413;-82
2021/05/16 10:57:12;;;;;;;3.67;1.40;;;15.90;85.60;;;;;;4878716;29;20174;-82
2021/05/16 10:59:39;;;;;;;4.50;1.20;;;16.20;85.70;;;;;;4879453;29;20414;-81
2021/05/16 11:02:04;;;;;;;8.97;1.73;;;15.90;82.40;;;;;;4879614;29;20449;-79
2021/05/16 11:04:47;;;;;;;4.20;1.20;;;16.00;84.80;;;;;;4864230;29;20427;-80
2021/05/16 11:07:34;;;;;;;3.23;1.20;;;15.70;85.00;;;;;;4880974;29;20197;-82
2021/05/16 11:10:22;;;;;;;2.90;1.10;;;15.80;85.90;;;;;;4883231;29;20506;-80
2021/05/16 11:12:48;;;;;;;2.27;1.00;;;16.00;87.70;;;;;;4876316;29;20951;-79
2021/05/16 11:15:27;;;;;;;5.73;1.20;;;16.00;85.20;;;;;;4863314;29;20430;-80
2021/05/16 11:17:52;;;;;;;4.87;1.33;;;15.90;87.10;;;;;;4864902;29;20426;-80
2021/05/16 11:20:19;;;;;;;3.57;1.40;;;15.90;85.50;;;;;;4890447;24;20505;-77
2021/05/16 11:22:44;;;;;;;6.17;1.50;;;15.60;86.40;;;;;;4862432;29;20211;-77
2021/05/16 11:25:10;;;;;;;2.90;1.20;;;15.60;85.90;;;;;;4872139;29;20462;-77
2021/05/16 11:27:36;;;;;;;6.63;1.57;;;16.00;88.00;;;;;;4877158;29;20722;-77
2021/05/16 11:30:05;;;;;;;4.60;1.60;;;16.40;89.40;;;;;;4877764;29;20193;-76
2021/05/16 11:32:32;;;;;;;2.37;1.23;;;16.60;86.30;;;;;;4877989;29;20186;-76
2021/05/16 11:35:04;;;;;;;3.83;1.17;;;16.70;88.30;;;;;;4875296;29;20429;-76
2021/05/16 11:37:31;;;;;;;2.83;1.50;;;16.90;82.40;;;;;;4869700;29;20512;-76
2021/05/16 11:40:22;;;;;;;4.10;1.47;;;17.10;82.80;;;;;;4875975;29;20480;-76
2021/05/16 11:42:54;;;;;;;2.23;1.10;;;16.90;84.00;;;;;;4872197;29;20434;-76
2021/05/16 11:45:19;;;;;;;5.80;1.27;;;16.60;82.70;;;;;;4868966;29;20551;-76
2021/05/16 11:47:45;;;;;;;6.00;1.50;;;16.80;85.90;;;;;;4871630;29;20448;-76
2021/05/16 11:50:12;;;;;;;4.23;1.23;;;17.00;86.10;;;;;;4874191;29;20245;-76
2021/05/16 11:52:37;;;;;;;3.30;1.07;;;17.00;80.30;;;;;;4876318;29;20443;-76
2021/05/16 11:55:11;;;;;;;8.43;0.97;;;16.90;85.30;;;;;;4875761;29;20502;-76
2021/05/16 11:57:45;;;;;;;4.57;1.40;;;16.80;80.10;;;;;;4875866;29;20187;-77
2021/05/16 12:00:13;;;;;;;5.43;1.43;;;16.60;84.40;;;;;;4874888;29;20449;-77
2021/05/16 12:02:39;;;;;;;8.97;1.27;;;16.80;89.40;;;;;;4880896;29;20509;-76
2021/05/16 12:05:05;;;;;;;3.37;1.20;;;17.00;91.80;;;;;;4880297;29;20898;-76
2021/05/16 12:07:31;;;;;;;2.10;0.97;;;17.00;87.80;;;;;;4880727;29;20896;-76
2021/05/16 12:09:56;;;;;;;4.80;1.10;;;16.90;88.70;;;;;;4880805;29;20434;-76
2021/05/16 12:12:25;;;;;;;1.90;1.00;;;17.00;83.70;;;;;;4877965;29;20261;-77
2021/05/16 12:14:53;;;;;;;3.30;1.43;;;16.40;82.40;;;;;;4876808;29;20185;-76
2021/05/16 12:17:19;;;;;;;2.47;0.97;;;15.90;83.70;;;;;;4877505;29;20423;-75
2021/05/16 12:19:45;;;;;;;1.80;0.80;;;15.60;86.20;;;;;;4877148;29;21045;-76
2021/05/16 12:22:14;;;;;;;3.20;1.00;;;15.50;87.30;;;;;;4880626;29;20214;-76
2021/05/16 12:24:46;;;;;;;2.60;0.97;;;15.40;89.20;;;;;;4880440;29;20243;-76
2021/05/16 12:27:17;;;;;;;5.20;0.90;;;15.10;90.20;;;;;;4879884;29;20414;-76
2021/05/16 12:29:44;;;;;;;2.60;1.10;;;15.30;95.80;;;;;;4880153;29;20441;-76
2021/05/16 12:32:11;;;;;;;3.30;1.30;;;16.30;96.30;;;;;;4880055;29;20453;-76
2021/05/16 12:34:37;;;;;;;1.50;0.80;;;17.60;96.30;;;;;;4880118;29;20482;-76
2021/05/16 12:37:14;;;;;;;2.93;1.10;;;18.30;95.70;;;;;;4879825;29;20474;-76
2021/05/16 12:39:44;;;;;;;2.17;0.80;;;18.80;92.10;;;;;;4876441;29;20458;-76
2021/05/16 12:42:24;;;;;;;2.50;1.17;;;19.30;87.60;;;;;;4880720;29;20410;-76
2021/05/16 12:44:54;;;;;;;5.73;1.40;;;19.10;80.60;;;;;;4880100;29;20469;-76
2021/05/16 12:47:27;;;;;;;2.20;0.90;;;18.90;84.20;;;;;;4877073;29;20477;-76
2021/05/16 12:50:08;;;;;;;2.60;0.90;;;19.40;79.80;;;;;;4879858;29;20513;-76
2021/05/16 12:52:34;;;;;;;1.60;0.80;;;18.00;80.40;;;;;;4880532;29;20422;-76
2021/05/16 12:55:05;;;;;;;2.00;0.80;;;17.40;83.50;;;;;;4880223;29;20934;-74
2021/05/16 13:00:06;;;;;;;1.17;0.50;;;17.70;80.90;;;;;;4880406;29;20496;-74
2021/05/16 13:02:32;;;;;;;1.70;0.70;;;17.30;84.30;;;;;;4880276;29;21006;-74
2021/05/16 13:04:58;;;;;;;2.37;1.00;;;17.60;84.40;;;;;;4879597;29;20532;-74
2021/05/16 13:07:35;;;;;;;1.70;0.80;;;17.80;86.70;;;;;;4879483;29;20174;-74
2021/05/16 13:10:21;;;;;;;1.23;0.70;;;17.70;83.30;;;;;;4879936;29;20457;-74
2021/05/16 13:12:47;;;;;;;1.87;1.00;;;17.20;83.60;;;;;;4880035;29;20418;-73
2021/05/16 13:15:12;;;;;;;2.90;0.63;;;16.20;85.50;;;;;;4879930;29;20433;-74
2021/05/16 13:17:38;;;;;;;1.27;0.70;;;16.20;87.80;;;;;;4879369;29;20201;-73
2021/05/16 13:20:17;;;;;;;1.90;0.80;;;16.10;89.60;;;;;;4879624;29;20658;-73
2021/05/16 13:22:43;;;;;;;1.10;0.70;;;16.60;85.40;;;;;;4880006;29;20713;-74
2021/05/16 13:25:15;;;;;;;2.30;0.83;;;17.50;82.90;;;;;;4879785;29;20461;-74
2021/05/16 13:27:41;;;;;;;1.80;0.70;;;17.30;79.90;;;;;;4879292;29;20285;-73
2021/05/16 13:30:09;;;;;;;1.53;0.80;;;16.50;83.20;;;;;;4879903;29;20461;-74
2021/05/16 13:32:34;;;;;;;2.33;0.90;;;16.90;82.00;;;;;;4880286;29;20422;-74
2021/05/16 13:35:00;;;;;;;1.63;0.60;;;16.70;81.40;;;;;;4879378;29;20429;-74
2021/05/16 13:37:28;;;;;;;1.20;0.70;;;17.20;79.50;;;;;;4879052;29;20181;-73
2021/05/16 13:39:54;;;;;;;0.97;0.60;;;17.40;80.10;;;;;;4879656;29;20693;-73
2021/05/16 13:42:20;;;;;;;1.20;0.93;;;16.70;80.30;;;;;;4879488;29;20418;-75
2021/05/16 13:44:47;;;;;;;1.20;0.70;;;16.60;78.90;;;;;;4879216;29;20174;-75
2021/05/16 13:47:12;;;;;;;3.17;0.67;;;16.30;82.20;;;;;;4878781;29;20174;-77
2021/05/16 13:49:38;;;;;;;2.20;1.37;;;16.20;84.10;;;;;;4874713;29;20788;-75
2021/05/16 13:52:03;;;;;;;0.83;0.50;;;16.10;83.50;;;;;;4880663;29;20239;-75
2021/05/16 13:54:31;;;;;;;1.10;0.60;;;16.10;82.50;;;;;;4879469;29;20189;-76
2021/05/16 13:56:58;;;;;;;1.13;0.73;;;16.00;88.70;;;;;;4878405;29;20542;-77
2021/05/16 13:59:23;;;;;;;1.93;0.90;;;15.90;84.50;;;;;;4879632;29;20445;-77
2021/05/16 14:01:51;;;;;;;0.83;0.60;;;16.00;87.30;;;;;;4879081;29;20498;-77
2021/05/16 14:04:17;;;;;;;1.00;0.57;;;16.50;86.30;;;;;;4879547;29;20548;-76
2021/05/16 14:06:42;;;;;;;0.80;0.50;;;16.70;82.50;;;;;;4878291;29;20561;-76
2021/05/16 14:09:09;;;;;;;1.40;0.70;;;16.60;82.00;;;;;;4878773;29;20194;-76
2021/05/16 14:11:36;;;;;;;0.80;0.60;;;16.00;85.70;;;;;;4877414;29;20208;-76
2021/05/16 14:14:04;;;;;;;1.60;0.73;;;15.80;82.60;;;;;;4878804;29;20410;-76
2021/05/16 14:16:30;;;;;;;1.87;0.50;;;15.90;86.00;;;;;;4878146;29;20820;-76
2021/05/16 14:18:55;;;;;;;1.07;0.60;;;16.00;83.40;;;;;;4878408;29;20454;-76
2021/05/16 14:21:21;;;;;;;1.67;0.60;;;15.80;83.30;;;;;;4878907;29;20422;-75
2021/05/16 14:23:47;;;;;;;1.63;0.60;;;15.70;86.50;;;;;;4878669;29;20177;-76
2021/05/16 14:26:13;;;;;;;1.53;0.67;;;15.70;86.30;;;;;;4878234;29;20206;-75
2021/05/16 14:28:39;;;;;;;0.80;0.50;;;15.60;84.20;;;;;;4878323;29;21041;-75
2021/05/16 14:31:04;;;;;;;1.20;0.60;;;15.60;86.30;;;;;;4878576;29;20181;-75
2021/05/16 14:33:30;;;;;;;2.10;0.60;;;15.60;84.30;;;;;;4878798;29;20266;-75
2021/05/16 14:35:55;;;;;;;1.00;0.50;;;15.60;85.90;;;;;;4878683;29;20194;-75
2021/05/16 14:38:21;;;;;;;1.03;0.70;;;15.80;84.20;;;;;;4878042;29;20273;-75
2021/05/16 14:40:47;;;;;;;1.00;0.60;;;16.50;84.50;;;;;;4877631;29;20560;-75
2021/05/16 14:43:15;;;;;;;0.90;0.50;;;17.00;79.80;;;;;;4878680;29;20228;-75
2021/05/16 14:45:41;;;;;;;5.53;0.60;;;17.50;79.10;;;;;;4878281;29;20469;-75
2021/05/16 14:48:07;;;;;;;0.80;0.53;;;17.50;79.70;;;;;;4877701;29;20473;-76
2021/05/16 14:50:46;;;;;;;1.23;0.60;;;16.80;80.90;;;;;;4878439;29;20202;-76
2021/05/16 14:53:11;;;;;;;1.40;0.50;;;16.40;82.70;;;;;;4878351;29;20535;-76
2021/05/16 14:55:37;;;;;;;1.53;0.60;;;16.20;81.50;;;;;;4878246;29;20473;-75
2021/05/16 14:58:03;;;;;;;0.90;0.60;;;16.00;85.10;;;;;;4877780;29;20192;-76
2021/05/16 15:00:29;;;;;;;0.80;0.50;;;16.10;83.40;;;;;;4878318;29;20197;-76
2021/05/16 15:02:54;;;;;;;1.10;0.80;;;16.00;85.60;;;;;;4878102;29;20524;-76
2021/05/16 15:05:20;;;;;;;1.27;0.67;;;16.70;83.40;;;;;;4878133;29;20681;-77
2021/05/16 15:07:46;;;;;;;0.90;0.50;;;17.60;79.20;;;;;;4877405;29;20260;-76
2021/05/16 15:10:11;;;;;;;0.83;0.60;;;17.70;78.50;;;;;;4868673;29;20213;-75
2021/05/16 15:12:37;;;;;;;2.97;0.97;;;17.60;78.20;;;;;;4875404;29;20192;-76
2021/05/16 15:15:05;;;;;;;0.90;0.60;;;18.00;81.00;;;;;;4877339;29;20177;-75
2021/05/16 15:17:30;;;;;;;1.73;1.00;;;18.10;80.40;;;;;;4877482;29;20360;-74
2021/05/16 15:19:56;;;;;;;1.20;0.57;;;18.10;81.50;;;;;;4877188;29;20469;-75
2021/05/16 15:22:22;;;;;;;3.33;2.97;;;18.50;76.80;;;;;;4879716;29;20186;-74
2021/05/16 15:24:47;;;;;;;1.47;0.80;;;19.00;74.00;;;;;;4881099;29;20180;-75
2021/05/16 15:27:13;;;;;;;1.00;0.90;;;19.40;74.50;;;;;;4883781;29;20188;-74
2021/05/16 15:29:43;;;;;;;1.10;0.63;;;18.70;77.50;;;;;;4892938;29;20197;-74
2021/05/16 15:32:09;;;;;;;1.50;0.70;;;18.90;77.60;;;;;;4881689;29;20198;-74
2021/05/16 15:34:35;;;;;;;0.80;0.50;;;18.70;77.20;;;;;;4880461;29;20414;-74
2021/05/16 15:37:01;;;;;;;1.30;0.60;;;17.40;81.30;;;;;;4880809;29;20433;-75
2021/05/16 15:39:27;;;;;;;0.90;0.50;;;17.20;83.80;;;;;;4881465;29;20690;-75
2021/05/16 15:41:53;;;;;;;1.10;0.60;;;17.00;84.30;;;;;;4881622;29;20178;-75
2021/05/16 15:44:19;;;;;;;1.67;0.60;;;17.50;82.80;;;;;;4881597;29;20469;-75
2021/05/16 15:46:44;;;;;;;1.23;0.60;;;17.90;84.50;;;;;;4880258;29;20461;-75
2021/05/16 15:49:10;;;;;;;1.00;0.70;;;17.90;83.40;;;;;;4881013;29;20240;-75
2021/05/16 15:51:35;;;;;;;1.93;0.70;;;17.80;80.80;;;;;;4881108;29;20181;-75
2021/05/16 15:54:01;;;;;;;0.90;0.67;;;17.90;80.60;;;;;;4880286;29;20192;-75
2021/05/16 15:56:26;;;;;;;2.07;0.70;;;17.40;82.60;;;;;;4879032;29;20620;-75
2021/05/16 15:58:52;;;;;;;0.93;0.73;;;17.80;80.10;;;;;;4880812;29;20209;-75
2021/05/16 16:01:19;;;;;;;1.13;0.70;;;17.50;78.30;;;;;;4880506;29;20190;-75
2021/05/16 16:03:45;;;;;;;3.30;1.40;;;17.10;80.80;;;;;;4880329;29;20174;-75
2021/05/16 16:06:10;;;;;;;2.83;0.80;;;17.10;79.50;;;;;;4880221;29;20873;-76
2021/05/16 16:08:36;;;;;;;2.47;0.87;;;16.20;80.40;;;;;;4880583;29;20216;-76
2021/05/16 16:11:01;;;;;;;2.10;0.70;;;16.20;80.60;;;;;;4880153;29;20178;-75
2021/05/16 16:13:27;;;;;;;0.90;0.53;;;15.80;83.40;;;;;;4878982;29;20190;-75
2021/05/16 16:15:52;;;;;;;1.83;0.70;;;15.00;89.20;;;;;;4880370;29;20181;-75
2021/05/16 16:18:18;;;;;;;1.90;0.70;;;14.30;94.30;;;;;;4876982;29;20306;-75
2021/05/16 16:20:43;;;;;;;1.87;0.90;;;14.10;96.10;;;;;;4878984;29;20710;-75
2021/05/16 16:23:09;;;;;;;2.20;0.73;;;13.90;96.20;;;;;;4878945;29;20654;-76
2021/05/16 16:25:35;;;;;;;1.13;0.53;;;13.60;96.30;;;;;;4879061;29;20201;-76
2021/05/16 16:28:00;;;;;;;14.13;7.30;;;13.30;96.30;;;;;;4873364;29;20221;-75
2021/05/16 16:30:26;;;;;;;2.87;1.00;;;13.10;96.30;;;;;;4876975;29;20288;-75
2021/05/16 16:32:52;;;;;;;2.10;0.80;;;13.00;96.30;;;;;;4875654;29;20185;-75
2021/05/16 16:35:17;;;;;;;1.20;0.60;;;13.00;96.30;;;;;;4876366;29;20217;-75
2021/05/16 16:37:43;;;;;;;12.97;1.53;;;12.90;96.30;;;;;;4877468;29;20192;-73
2021/05/16 16:40:10;;;;;;;3.10;1.10;;;11.40;96.30;;;;;;4878906;29;20283;-73
2021/05/16 16:42:35;;;;;;;3.33;1.07;;;10.80;96.30;;;;;;4879157;29;20200;-73
2021/05/16 16:45:02;;;;;;;2.43;0.90;;;10.40;96.30;;;;;;4879624;29;20414;-73
2021/05/16 16:47:28;;;;;;;1.97;0.80;;;10.30;96.30;;;;;;4879652;29;20174;-74
2021/05/16 16:49:54;;;;;;;1.73;0.80;;;;;;;;;;4880328;29;20434;-74
2021/05/16 16:52:19;;;;;;;1.50;0.70;;;10.20;96.30;;;;;;4880478;29;20244;-75
2021/05/16 16:54:45;;;;;;;2.00;0.63;;;10.20;96.30;;;;;;4878133;29;20426;-75